Time;durP1;ratioP1;P1;durP2;ratioP2;P2;SDS_P1;SDS_P2;PMS_P1;PMS_P2;Temp;Humidity;BMP_temperature;BMP_pressure;BME280_temperature;BME280_humidity;BME280_pressure;Samples;Min_cycle;Max_cycle;Signal;HPM_P1;HPM_P2
2021/04/10 00:01:23;;;;;;;0.70;0.50;;;20.30;44.20;;;;;;7709747;23;20377;-65
2021/04/10 00:04:25;;;;;;;1.17;0.65;;;20.30;44.10;;;;;;7709976;23;20005;-65
2021/04/10 00:07:25;;;;;;;0.70;0.50;;;20.30;44.10;;;;;;7709462;23;20001;-65
2021/04/10 00:10:28;;;;;;;0.80;0.70;;;20.30;44.00;;;;;;7709327;23;20019;-63
2021/04/10 00:13:29;;;;;;;1.13;0.63;;;20.30;44.20;;;;;;7709393;23;20020;-65
2021/04/10 00:16:29;;;;;;;0.77;0.68;;;20.30;44.00;;;;;;7709671;23;20015;-65
2021/04/10 00:19:32;;;;;;;0.77;0.60;;;20.30;44.10;;;;;;7712167;23;20027;-64
2021/04/10 00:22:32;;;;;;;1.13;0.80;;;20.30;44.10;;;;;;7712311;23;20000;-64
2021/04/10 00:25:33;;;;;;;0.70;0.60;;;20.30;44.20;;;;;;7711680;23;20388;-65
2021/04/10 00:28:33;;;;;;;1.02;0.50;;;20.30;44.20;;;;;;7711476;23;20001;-65
2021/04/10 00:31:34;;;;;;;0.77;0.50;;;20.30;44.30;;;;;;7712070;23;20000;-65
2021/04/10 00:34:35;;;;;;;0.95;0.70;;;20.30;44.20;;;;;;7711868;23;20019;-65
2021/04/10 00:37:36;;;;;;;0.90;0.60;;;20.30;44.80;;;;;;7711676;23;20500;-64
2021/04/10 00:40:36;;;;;;;0.73;0.63;;;20.30;44.10;;;;;;7711701;23;20008;-65
2021/04/10 00:43:37;;;;;;;1.02;0.60;;;20.30;44.10;;;;;;7711723;23;20007;-64
2021/04/10 00:46:38;;;;;;;0.55;0.50;;;20.20;44.00;;;;;;7711952;23;20005;-64
2021/04/10 00:49:38;;;;;;;0.60;0.60;;;20.20;44.00;;;;;;7711457;23;20127;-65
2021/04/10 00:52:41;;;;;;;0.75;0.50;;;20.20;44.00;;;;;;7712071;23;20008;-65
2021/04/10 00:55:47;;;;;;;0.82;0.52;;;20.30;45.00;;;;;;7711568;23;20332;-65
2021/04/10 00:58:47;;;;;;;1.50;0.90;;;20.20;44.10;;;;;;7711324;23;20009;-64
2021/04/10 01:01:48;;;;;;;0.65;0.50;;;20.30;44.20;;;;;;7712800;23;20005;-64
2021/04/10 01:04:48;;;;;;;0.28;0.28;;;20.30;44.20;;;;;;7711206;23;20035;-65
2021/04/10 01:07:49;;;;;;;0.93;0.50;;;20.30;44.20;;;;;;7711845;23;20321;-64
2021/04/10 01:10:50;;;;;;;0.77;0.60;;;20.30;44.20;;;;;;7711581;23;20009;-64
2021/04/10 01:14:20;;;;;;;0.93;0.65;;;20.30;44.80;;;;;;7711948;23;20017;-65
2021/04/10 01:17:33;;;;;;;1.05;0.70;;;20.30;44.20;;;;;;7700792;23;20436;-64
2021/04/10 01:20:49;;;;;;;0.60;0.40;;;20.30;44.20;;;;;;7711676;23;20352;-65
2021/04/10 01:24:05;;;;;;;;;;;20.30;44.20;;;;;;7711743;23;20401;-65
2021/04/10 01:27:22;;;;;;;0.47;0.40;;;20.20;44.10;;;;;;7711403;23;19900;-65
2021/04/10 01:30:24;;;;;;;0.55;0.43;;;20.30;44.20;;;;;;7710669;23;20090;-65
2021/04/10 01:33:28;;;;;;;0.82;0.60;;;20.20;44.10;;;;;;7711541;23;20013;-62
2021/04/10 01:36:33;;;;;;;0.75;0.60;;;20.20;44.10;;;;;;7711145;23;20004;-64
2021/04/10 01:39:34;;;;;;;;;;;20.30;44.30;;;;;;7711687;23;20004;-65
2021/04/10 01:42:38;;;;;;;0.55;0.50;;;20.20;44.10;;;;;;7711030;23;19918;-63
2021/04/10 01:45:40;;;;;;;0.68;0.60;;;20.30;44.30;;;;;;7711178;23;20016;-64
2021/04/10 01:48:45;;;;;;;1.05;0.47;;;20.20;44.20;;;;;;7710844;23;20093;-65
2021/04/10 01:51:47;;;;;;;0.75;0.50;;;20.20;44.10;;;;;;7711202;23;20012;-63
2021/04/10 01:54:48;;;;;;;1.52;0.60;;;20.20;44.10;;;;;;7710769;23;20008;-65
2021/04/10 01:57:51;;;;;;;0.70;0.40;;;20.20;44.20;;;;;;7711747;23;20004;-65
2021/04/10 02:00:52;;;;;;;1.15;0.70;;;20.20;44.30;;;;;;7711258;23;20011;-65
2021/04/10 02:03:54;;;;;;;0.40;0.40;;;20.20;44.30;;;;;;7711109;23;20009;-65
2021/04/10 02:06:55;;;;;;;0.55;0.40;;;20.20;44.20;;;;;;7710940;23;20138;-65
2021/04/10 02:09:56;;;;;;;0.60;0.60;;;20.20;44.20;;;;;;7710588;23;20429;-65
2021/04/10 02:12:57;;;;;;;0.50;0.40;;;20.20;44.90;;;;;;7710867;23;20017;-63
2021/04/10 02:15:57;;;;;;;0.40;0.35;;;20.20;44.10;;;;;;7710230;23;20067;-65
2021/04/10 02:19:01;;;;;;;0.47;0.43;;;20.20;44.20;;;;;;7710433;23;20008;-65
2021/04/10 02:22:04;;;;;;;0.65;0.40;;;20.20;44.20;;;;;;7710834;23;20459;-65
2021/04/10 02:25:06;;;;;;;0.43;0.35;;;20.20;44.10;;;;;;7710597;23;20097;-65
2021/04/10 02:28:08;;;;;;;0.70;0.50;;;20.20;44.30;;;;;;7710592;23;20005;-64
2021/04/10 02:31:17;;;;;;;0.88;0.40;;;20.20;44.20;;;;;;7710520;23;20317;-63
2021/04/10 02:34:24;;;;;;;1.00;0.60;;;20.20;44.20;;;;;;7710311;23;20019;-65
2021/04/10 02:37:26;;;;;;;0.50;0.40;;;20.20;44.20;;;;;;7710444;23;20005;-64
2021/04/10 02:40:32;;;;;;;0.65;0.50;;;20.20;44.20;;;;;;7710791;23;20031;-64
2021/04/10 02:43:36;;;;;;;0.60;0.57;;;20.20;44.20;;;;;;7710642;23;20003;-64
2021/04/10 02:46:47;;;;;;;0.63;0.50;;;20.20;44.30;;;;;;7710491;23;20596;-65
2021/04/10 02:49:55;;;;;;;0.75;0.60;;;20.20;44.30;;;;;;7710299;23;20032;-65
2021/04/10 02:52:57;;;;;;;0.60;0.47;;;20.20;44.30;;;;;;7710126;23;20084;-64
2021/04/10 02:55:59;;;;;;;0.77;0.50;;;20.20;44.30;;;;;;7710342;23;20012;-64
2021/04/10 02:59:01;;;;;;;1.13;0.50;;;20.20;44.30;;;;;;7710331;23;20094;-63
2021/04/10 03:02:03;;;;;;;0.50;0.45;;;20.20;44.20;;;;;;7710561;23;20016;-63
2021/04/10 03:05:05;;;;;;;0.35;0.35;;;20.20;44.30;;;;;;7710257;23;20344;-64
2021/04/10 03:08:07;;;;;;;0.60;0.60;;;20.20;44.30;;;;;;7709911;23;20030;-65
2021/04/10 03:11:09;;;;;;;0.52;0.40;;;20.20;44.30;;;;;;7710160;23;20383;-64
2021/04/10 03:14:10;;;;;;;0.70;0.50;;;20.20;44.30;;;;;;7709893;23;20058;-65
2021/04/10 03:17:20;;;;;;;0.60;0.40;;;20.20;44.30;;;;;;7710463;23;20008;-65
2021/04/10 03:20:25;;;;;;;0.68;0.52;;;20.20;44.30;;;;;;7709760;23;20000;-64
2021/04/10 03:23:25;;;;;;;0.40;0.40;;;20.20;44.30;;;;;;7710281;23;20020;-65
2021/04/10 03:26:26;;;;;;;0.70;0.47;;;20.20;44.30;;;;;;7709741;23;20416;-64
2021/04/10 03:29:27;;;;;;;0.32;0.32;;;20.20;44.30;;;;;;7710343;23;20009;-64
2021/04/10 03:32:28;;;;;;;0.55;0.45;;;20.20;44.30;;;;;;7709442;23;20009;-63
2021/04/10 03:35:30;;;;;;;0.60;0.40;;;20.20;44.30;;;;;;7709936;23;20150;-64
2021/04/10 03:38:32;;;;;;;0.50;0.50;;;20.20;44.30;;;;;;7709581;23;20011;-65
2021/04/10 03:41:33;;;;;;;0.60;0.50;;;20.20;44.30;;;;;;7709686;23;20009;-64
2021/04/10 03:44:33;;;;;;;0.40;0.40;;;20.20;44.30;;;;;;7710256;23;20013;-64
2021/04/10 03:47:34;;;;;;;0.40;0.30;;;20.20;44.30;;;;;;7709348;23;20012;-65
2021/04/10 03:50:34;;;;;;;0.50;0.50;;;20.20;44.30;;;;;;7709731;23;20028;-64
2021/04/10 03:53:35;;;;;;;0.50;0.40;;;20.20;44.30;;;;;;7709093;23;20013;-64
2021/04/10 03:56:36;;;;;;;5.45;0.45;;;20.20;44.30;;;;;;7709818;23;20004;-65
2021/04/10 03:59:36;;;;;;;0.47;0.40;;;20.20;44.40;;;;;;7709405;23;20091;-64
2021/04/10 04:02:38;;;;;;;0.52;0.40;;;20.20;44.30;;;;;;7709446;23;20009;-64
2021/04/10 04:05:39;;;;;;;0.30;0.30;;;20.20;44.30;;;;;;7709430;23;20028;-65
2021/04/10 04:08:39;;;;;;;0.55;0.40;;;20.20;44.30;;;;;;7709607;23;20016;-65
2021/04/10 04:11:40;;;;;;;0.50;0.40;;;20.20;44.40;;;;;;7709679;23;20020;-65
2021/04/10 04:14:41;;;;;;;0.40;0.30;;;20.20;44.30;;;;;;7709201;23;20167;-65
2021/04/10 04:17:41;;;;;;;0.88;0.50;;;20.20;44.30;;;;;;7708213;23;20450;-64
2021/04/10 04:20:42;;;;;;;0.50;0.50;;;20.20;44.40;;;;;;7709386;23;20009;-65
2021/04/10 04:23:43;;;;;;;0.57;0.50;;;20.20;44.40;;;;;;7709168;23;20008;-65
2021/04/10 04:26:43;;;;;;;0.68;0.40;;;20.20;44.40;;;;;;7709402;23;20381;-65
2021/04/10 04:29:44;;;;;;;0.40;0.30;;;20.20;44.40;;;;;;7709775;23;20309;-64
2021/04/10 04:32:44;;;;;;;0.50;0.40;;;20.20;44.40;;;;;;7709301;23;20035;-64
2021/04/10 04:35:45;;;;;;;0.60;0.50;;;20.20;44.40;;;;;;7709787;23;20005;-64
2021/04/10 04:38:45;;;;;;;0.73;0.40;;;20.20;44.40;;;;;;7709369;23;20036;-64
2021/04/10 04:41:46;;;;;;;0.43;0.40;;;20.20;44.40;;;;;;7709381;23;20095;-64
2021/04/10 04:44:47;;;;;;;0.40;0.35;;;20.20;44.40;;;;;;7709192;23;20008;-65
2021/04/10 04:47:47;;;;;;;0.73;0.50;;;20.20;44.40;;;;;;7709183;23;20086;-65
2021/04/10 04:50:48;;;;;;;0.55;0.43;;;20.20;44.50;;;;;;7709200;23;20031;-65
2021/04/10 04:53:49;;;;;;;0.20;0.20;;;20.20;44.50;;;;;;7709240;23;20023;-65
2021/04/10 04:56:49;;;;;;;0.82;0.38;;;20.20;44.40;;;;;;7709614;23;20000;-65
2021/04/10 05:00:37;;;;;;;0.40;0.40;;;20.20;44.50;;;;;;7709239;23;20009;-64
2021/04/10 05:03:38;;;;;;;0.90;0.50;;;20.20;44.50;;;;;;7710553;23;20158;-65
2021/04/10 05:06:39;;;;;;;0.55;0.32;;;20.20;44.50;;;;;;7711555;23;20008;-65
2021/04/10 05:09:40;;;;;;;0.60;0.40;;;20.20;44.40;;;;;;7711889;23;20020;-65
2021/04/10 05:12:40;;;;;;;1.90;0.50;;;20.20;44.40;;;;;;7711375;23;20004;-65
2021/04/10 05:15:41;;;;;;;0.40;0.40;;;20.20;44.50;;;;;;7711444;23;20048;-65
2021/04/10 05:18:41;;;;;;;0.45;0.38;;;20.20;44.50;;;;;;7711311;23;20012;-65
2021/04/10 05:21:42;;;;;;;0.45;0.38;;;20.20;44.50;;;;;;7700673;23;20384;-65
2021/04/10 05:24:42;;;;;;;0.40;0.40;;;20.20;44.50;;;;;;7706850;23;20008;-63
2021/04/10 05:27:43;;;;;;;0.70;0.40;;;20.20;44.60;;;;;;7703703;23;20439;-65
2021/04/10 05:30:43;;;;;;;0.93;0.60;;;20.20;44.50;;;;;;7706767;23;20028;-65
2021/04/10 05:33:44;;;;;;;1.58;0.52;;;20.20;44.70;;;;;;7710194;23;20001;-64
2021/04/10 05:36:44;;;;;;;0.90;0.40;;;20.20;44.60;;;;;;7711006;23;20004;-64
2021/04/10 05:39:45;;;;;;;0.77;0.40;;;20.20;44.50;;;;;;7710872;23;20349;-65
2021/04/10 05:42:46;;;;;;;0.40;0.32;;;20.20;44.50;;;;;;7711467;23;20019;-65
2021/04/10 05:45:46;;;;;;;0.50;0.43;;;20.20;44.50;;;;;;7711370;23;20008;-65
2021/04/10 05:48:47;;;;;;;0.40;0.40;;;20.20;44.60;;;;;;7710804;23;20009;-65
2021/04/10 05:51:48;;;;;;;0.40;0.40;;;20.20;44.60;;;;;;7711037;23;20026;-64
2021/04/10 05:54:48;;;;;;;1.08;0.63;;;20.20;44.50;;;;;;7710903;23;20012;-64
2021/04/10 05:57:49;;;;;;;0.40;0.40;;;20.20;44.50;;;;;;7711056;23;20004;-65
2021/04/10 06:00:49;;;;;;;1.33;0.40;;;20.20;44.50;;;;;;7710825;23;20016;-64
2021/04/10 06:03:50;;;;;;;1.27;0.50;;;20.20;44.60;;;;;;7710884;23;20004;-64
2021/04/10 06:06:50;;;;;;;0.63;0.40;;;20.20;44.60;;;;;;7710685;23;20001;-64
2021/04/10 06:09:51;;;;;;;0.65;0.40;;;20.20;44.50;;;;;;7711061;23;20371;-64
2021/04/10 06:12:51;;;;;;;0.50;0.30;;;20.20;44.60;;;;;;7711047;23;20012;-64
2021/04/10 06:15:52;;;;;;;0.80;0.65;;;20.20;44.50;;;;;;7710321;23;20009;-65
2021/04/10 06:18:52;;;;;;;0.45;0.40;;;20.20;44.50;;;;;;7710631;23;20009;-62
2021/04/10 06:21:53;;;;;;;3.65;0.50;;;20.20;44.60;;;;;;7710602;23;20009;-65
2021/04/10 06:24:53;;;;;;;1.05;0.40;;;20.20;44.60;;;;;;7710981;23;20399;-64
2021/04/10 06:27:54;;;;;;;1.15;0.43;;;20.20;44.60;;;;;;7710678;23;20058;-64
2021/04/10 06:30:55;;;;;;;2.78;0.40;;;20.20;44.60;;;;;;7710630;23;20379;-64
2021/04/10 06:33:56;;;;;;;0.80;0.50;;;20.20;44.60;;;;;;7710245;23;20090;-64
2021/04/10 06:36:56;;;;;;;0.90;0.52;;;20.20;44.60;;;;;;7710606;23;20080;-65
2021/04/10 06:39:57;;;;;;;0.75;0.32;;;20.20;44.60;;;;;;7711184;23;20031;-65
2021/04/10 06:43:00;;;;;;;0.32;0.32;;;20.20;44.60;;;;;;7710541;23;20442;-65
2021/04/10 06:46:01;;;;;;;0.40;0.30;;;20.20;44.60;;;;;;7710611;23;20005;-64
2021/04/10 06:49:04;;;;;;;0.60;0.40;;;20.20;44.50;;;;;;7710655;23;20430;-64
2021/04/10 06:52:06;;;;;;;0.65;0.47;;;20.20;44.50;;;;;;7710616;23;20375;-64
2021/04/10 06:55:16;;;;;;;3.03;0.40;;;20.20;44.60;;;;;;7710167;23;20063;-65
2021/04/10 06:58:58;;;;;;;1.65;0.60;;;20.20;44.50;;;;;;7710225;23;20035;-64
2021/04/10 07:01:59;;;;;;;1.33;0.50;;;20.20;44.50;;;;;;7678997;23;20035;-65
2021/04/10 07:05:00;;;;;;;0.73;0.40;;;20.20;44.50;;;;;;7710072;23;20348;-65
2021/04/10 07:08:00;;;;;;;0.63;0.40;;;20.20;44.60;;;;;;7710066;23;20010;-65
2021/04/10 07:11:02;;;;;;;0.70;0.50;;;20.20;44.50;;;;;;7709856;23;20009;-65
2021/04/10 07:14:02;;;;;;;1.05;0.63;;;20.20;44.60;;;;;;7709856;23;20306;-65
2021/04/10 07:17:03;;;;;;;0.63;0.40;;;20.20;44.40;;;;;;7709964;23;20000;-65
2021/04/10 07:20:29;;;;;;;0.90;0.50;;;20.20;44.50;;;;;;7710012;23;20065;-65
2021/04/10 07:23:43;;;;;;;0.70;0.40;;;20.20;44.50;;;;;;7710473;23;20005;-65
2021/04/10 07:26:56;;;;;;;1.15;0.50;;;20.20;44.50;;;;;;7709952;23;20005;-65
2021/04/10 07:30:00;;;;;;;0.30;0.30;;;20.20;44.50;;;;;;7709901;23;20134;-64
2021/04/10 07:33:00;;;;;;;0.60;0.30;;;20.20;44.50;;;;;;7709722;23;20004;-65
2021/04/10 07:36:03;;;;;;;0.40;0.40;;;20.20;44.50;;;;;;7709603;23;20012;-65
2021/04/10 07:39:04;;;;;;;0.40;0.30;;;20.20;44.50;;;;;;7710079;23;20028;-64
2021/04/10 07:42:06;;;;;;;0.38;0.38;;;20.20;44.40;;;;;;7709986;23;20083;-65
2021/04/10 07:45:28;;;;;;;0.50;0.40;;;20.20;44.40;;;;;;7709509;23;20408;-64
2021/04/10 07:48:29;;;;;;;0.50;0.30;;;20.20;44.50;;;;;;7709791;23;20008;-64
2021/04/10 07:51:32;;;;;;;0.43;0.40;;;20.20;44.40;;;;;;7709642;23;20387;-64
2021/04/10 07:54:35;;;;;;;0.90;0.60;;;20.20;44.50;;;;;;7709888;23;20016;-64
2021/04/10 07:57:36;;;;;;;0.95;0.40;;;20.20;44.50;;;;;;7709373;23;20040;-65
2021/04/10 08:00:42;;;;;;;0.90;0.57;;;20.20;44.60;;;;;;7709665;23;20035;-65
2021/04/10 08:03:49;;;;;;;1.10;0.40;;;20.20;44.50;;;;;;7709902;23;20001;-65
2021/04/10 08:06:55;;;;;;;0.85;0.40;;;20.20;44.50;;;;;;7709747;23;20403;-64
2021/04/10 08:09:56;;;;;;;;;;;20.20;44.50;;;;;;7709631;23;20106;-65
2021/04/10 08:13:08;;;;;;;0.75;0.40;;;20.20;44.50;;;;;;7709421;23;19904;-65
2021/04/10 08:16:17;;;;;;;1.02;0.30;;;20.20;44.50;;;;;;7709798;23;20175;-65
2021/04/10 08:19:28;;;;;;;0.60;0.40;;;20.20;44.50;;;;;;7709240;23;20054;-65
2021/04/10 08:22:29;;;;;;;0.82;0.60;;;20.20;44.50;;;;;;7709554;23;20008;-65
2021/04/10 08:25:32;;;;;;;0.60;0.47;;;20.20;44.40;;;;;;7709795;23;20011;-65
2021/04/10 08:28:37;;;;;;;0.40;0.40;;;20.20;45.10;;;;;;7709808;23;20016;-64
2021/04/10 08:31:37;;;;;;;;;;;20.20;44.40;;;;;;7710099;23;20388;-65
2021/04/10 08:34:38;;;;;;;0.43;0.25;;;20.20;44.40;;;;;;7709073;23;19912;-65
2021/04/10 08:37:41;;;;;;;0.73;0.40;;;20.20;44.50;;;;;;7709720;23;20007;-64
2021/04/10 08:40:42;;;;;;;0.52;0.40;;;20.20;44.40;;;;;;7711689;23;20424;-64
2021/04/10 08:43:49;;;;;;;0.60;0.38;;;20.20;44.50;;;;;;7712378;23;20007;-65
2021/04/10 08:46:51;;;;;;;0.50;0.35;;;20.20;44.50;;;;;;7711923;23;20379;-65
2021/04/10 08:49:52;;;;;;;0.85;0.57;;;20.20;44.40;;;;;;7711508;23;20071;-65
2021/04/10 08:52:53;;;;;;;0.60;0.40;;;20.20;44.40;;;;;;7711715;23;20007;-65
2021/04/10 08:55:55;;;;;;;0.50;0.30;;;20.30;44.60;;;;;;7711623;23;20335;-65
2021/04/10 08:59:09;;;;;;;1.20;0.40;;;20.20;44.40;;;;;;7711978;23;20070;-65
2021/04/10 09:02:21;;;;;;;0.50;0.40;;;20.20;44.30;;;;;;7712069;23;20008;-65
2021/04/10 09:05:23;;;;;;;0.30;0.30;;;20.20;44.40;;;;;;7711461;23;20024;-64
2021/04/10 09:08:27;;;;;;;0.40;0.40;;;20.20;44.40;;;;;;7711565;23;20321;-65
2021/04/10 09:11:28;;;;;;;0.40;0.40;;;20.30;44.60;;;;;;7711824;23;20059;-65
2021/04/10 09:14:45;;;;;;;0.30;0.30;;;20.30;44.60;;;;;;7711569;23;20040;-65
2021/04/10 09:17:55;;;;;;;0.60;0.40;;;20.30;44.60;;;;;;7711264;23;20004;-65
2021/04/10 09:21:08;;;;;;;0.90;0.43;;;20.30;44.60;;;;;;7711408;23;20444;-65
2021/04/10 09:24:29;;;;;;;0.68;0.40;;;20.30;44.70;;;;;;7711302;23;20011;-64
2021/04/10 09:27:30;;;;;;;0.40;0.40;;;20.30;44.70;;;;;;7711103;23;20442;-65
2021/04/10 09:30:38;;;;;;;0.43;0.30;;;20.30;44.80;;;;;;7711557;23;20071;-66
2021/04/10 09:33:39;;;;;;;0.65;0.30;;;20.30;44.70;;;;;;7709476;23;20021;-65
2021/04/10 09:36:46;;;;;;;0.30;0.30;;;20.30;45.30;;;;;;7711068;23;20005;-66
2021/04/10 09:40:20;;;;;;;6.38;0.75;;;20.40;45.70;;;;;;7710973;23;20062;-64
2021/04/10 09:43:21;;;;;;;8.38;0.70;;;20.50;46.00;;;;;;7710959;23;20000;-64
2021/04/10 09:46:34;;;;;;;5.97;0.80;;;20.60;46.30;;;;;;7711250;23;20013;-65
2021/04/10 09:49:38;;;;;;;10.65;0.88;;;20.70;46.90;;;;;;7709900;23;20020;-63
2021/04/10 09:52:39;;;;;;;205.15;15.10;;;20.80;46.40;;;;;;7711365;23;20083;-62
2021/04/10 09:55:46;;;;;;;288.77;20.40;;;20.80;45.50;;;;;;7710962;23;20038;-65
2021/04/10 09:58:52;;;;;;;629.28;53.85;;;20.80;45.10;;;;;;7711011;23;20005;-63
2021/04/10 10:01:53;;;;;;;454.60;39.45;;;20.90;45.60;;;;;;7710894;23;20314;-62
2021/04/10 10:04:54;;;;;;;215.35;16.98;;;20.90;46.10;;;;;;7710585;23;20012;-65
2021/04/10 10:08:10;;;;;;;135.45;15.80;;;20.90;45.80;;;;;;7710574;23;20011;-66
2021/04/10 10:11:11;;;;;;;118.88;11.80;;;21.00;46.00;;;;;;7710330;23;20019;-64
2021/04/10 10:14:12;;;;;;;100.57;9.98;;;21.10;45.60;;;;;;7710429;23;20027;-63
2021/04/10 10:17:12;;;;;;;92.93;11.13;;;21.00;45.30;;;;;;7710351;23;20008;-63
2021/04/10 10:20:14;;;;;;;90.07;10.88;;;20.90;45.90;;;;;;7711492;23;20346;-63
2021/04/10 10:23:15;;;;;;;77.40;9.77;;;20.80;45.80;;;;;;7711267;23;20011;-63
2021/04/10 10:26:25;;;;;;;72.60;9.75;;;20.80;45.70;;;;;;7711070;23;20259;-63
2021/04/10 10:29:25;;;;;;;66.25;7.25;;;20.80;45.80;;;;;;7710266;23;20031;-61
2021/04/10 10:32:26;;;;;;;61.05;6.28;;;20.80;44.90;;;;;;7710903;23;20008;-62
2021/04/10 10:35:30;;;;;;;51.80;6.13;;;20.70;45.00;;;;;;7709004;23;20020;-62
2021/04/10 10:38:37;;;;;;;49.38;6.50;;;20.70;45.20;;;;;;7710771;23;20004;-63
2021/04/10 10:41:43;;;;;;;40.20;5.85;;;20.70;45.10;;;;;;7710631;23;20094;-63
2021/04/10 10:44:47;;;;;;;41.63;5.32;;;20.70;45.20;;;;;;7710610;23;20324;-63
2021/04/10 10:47:48;;;;;;;38.17;5.65;;;20.70;45.00;;;;;;7695674;23;20000;-63
2021/04/10 10:50:54;;;;;;;45.35;5.40;;;20.70;45.60;;;;;;7706961;23;20035;-62
2021/04/10 10:53:55;;;;;;;119.75;10.73;;;20.60;45.60;;;;;;7708124;23;20091;-64
2021/04/10 10:56:56;;;;;;;164.30;12.10;;;20.60;44.60;;;;;;7706744;23;20010;-63
2021/04/10 10:59:56;;;;;;;143.00;11.25;;;20.60;43.70;;;;;;7709230;23;20005;-63
2021/04/10 11:02:57;;;;;;;116.32;10.32;;;20.60;43.60;;;;;;7707964;23;20007;-63
2021/04/10 11:05:57;;;;;;;109.97;10.38;;;20.60;43.80;;;;;;7709392;23;20005;-63
2021/04/10 11:09:04;;;;;;;77.38;9.13;;;20.60;44.00;;;;;;7710114;23;20142;-63
2021/04/10 11:12:11;;;;;;;65.20;9.05;;;20.60;44.10;;;;;;7711051;23;20000;-63
2021/04/10 11:15:12;;;;;;;72.90;6.63;;;20.60;44.30;;;;;;7709394;23;20078;-63
2021/04/10 11:18:30;;;;;;;56.25;7.18;;;20.60;44.50;;;;;;7710121;23;20004;-63
2021/04/10 11:21:31;;;;;;;67.38;6.85;;;20.60;44.60;;;;;;7710723;23;20032;-63
2021/04/10 11:24:49;;;;;;;53.30;6.70;;;20.60;44.70;;;;;;7711036;23;20443;-63
2021/04/10 11:27:49;;;;;;;57.72;7.72;;;20.60;44.90;;;;;;7710045;23;20013;-62
2021/04/10 11:31:04;;;;;;;44.60;7.03;;;20.60;45.00;;;;;;7711140;23;20066;-63
2021/04/10 11:34:34;;;;;;;30.27;5.97;;;20.50;45.10;;;;;;7709635;23;20016;-63
2021/04/10 11:37:35;;;;;;;30.85;5.78;;;20.50;45.10;;;;;;7669767;23;20036;-63
2021/04/10 11:40:35;;;;;;;35.25;5.28;;;20.50;45.20;;;;;;7710674;23;20417;-63
2021/04/10 11:43:36;;;;;;;31.63;5.05;;;20.50;45.20;;;;;;7710915;23;20008;-63
2021/04/10 11:46:36;;;;;;;28.02;5.00;;;20.50;45.20;;;;;;7709148;23;20027;-63
2021/04/10 11:49:37;;;;;;;24.15;4.80;;;20.50;45.20;;;;;;7709968;23;20012;-63
2021/04/10 11:52:39;;;;;;;21.88;4.72;;;20.50;45.30;;;;;;7709299;23;20005;-63
2021/04/10 11:55:40;;;;;;;26.65;4.38;;;20.50;45.20;;;;;;7710810;23;20051;-63
2021/04/10 11:58:40;;;;;;;18.77;3.97;;;20.50;45.20;;;;;;7709174;23;20392;-63
2021/04/10 12:01:51;;;;;;;19.83;3.97;;;20.50;45.30;;;;;;7710743;23;20004;-63
2021/04/10 12:04:51;;;;;;;26.65;5.25;;;20.50;45.40;;;;;;7710757;23;20373;-63
2021/04/10 12:08:10;;;;;;;22.92;4.45;;;20.50;45.40;;;;;;7709526;23;20019;-63
2021/04/10 12:11:10;;;;;;;14.15;3.65;;;20.50;45.40;;;;;;7709568;23;20032;-63
2021/04/10 12:14:14;;;;;;;23.77;4.35;;;20.50;45.40;;;;;;7708647;23;20096;-63
2021/04/10 12:17:15;;;;;;;16.42;4.22;;;20.50;45.40;;;;;;7710210;23;20005;-64
2021/04/10 12:20:15;;;;;;;18.73;3.95;;;20.50;45.50;;;;;;7710235;23;20001;-63
2021/04/10 12:23:16;;;;;;;16.48;3.78;;;20.50;45.50;;;;;;7709770;23;20004;-63
2021/04/10 12:26:17;;;;;;;16.23;3.83;;;20.50;45.50;;;;;;7710108;23;20421;-63
2021/04/10 12:29:18;;;;;;;15.77;3.70;;;20.50;45.50;;;;;;7710174;23;20015;-63
2021/04/10 12:32:18;;;;;;;20.45;3.33;;;20.50;45.60;;;;;;7711045;23;20009;-63
2021/04/10 12:35:19;;;;;;;16.42;3.25;;;20.40;45.50;;;;;;7708518;23;20012;-63
2021/04/10 12:38:19;;;;;;;13.35;3.00;;;20.50;45.60;;;;;;7708481;23;20005;-63
2021/04/10 12:41:20;;;;;;;17.05;3.20;;;20.40;45.50;;;;;;7710337;23;20027;-63
2021/04/10 12:44:21;;;;;;;15.40;3.42;;;20.50;45.60;;;;;;7710187;23;20011;-63
2021/04/10 12:47:22;;;;;;;13.68;3.65;;;20.50;45.60;;;;;;7710265;23;20008;-63
2021/04/10 12:50:24;;;;;;;14.98;3.00;;;20.50;45.60;;;;;;7709105;23;20028;-63
2021/04/10 12:53:25;;;;;;;12.85;2.80;;;20.40;45.60;;;;;;7710993;23;20040;-63
2021/04/10 12:56:25;;;;;;;12.55;2.50;;;20.40;45.60;;;;;;7710070;23;20387;-62
2021/04/10 12:59:26;;;;;;;15.05;3.53;;;20.50;45.70;;;;;;7710169;23;20102;-62
2021/04/10 13:02:26;;;;;;;9.50;2.83;;;20.40;45.60;;;;;;7710254;23;20459;-63
2021/04/10 13:05:27;;;;;;;8.27;2.38;;;20.40;45.60;;;;;;7709773;23;20001;-63
2021/04/10 13:08:27;;;;;;;9.65;3.40;;;20.50;45.60;;;;;;7709424;23;20012;-63
2021/04/10 13:11:28;;;;;;;11.50;2.90;;;20.40;45.60;;;;;;7710552;23;20309;-63
2021/04/10 13:14:28;;;;;;;5.72;2.00;;;20.50;45.60;;;;;;7709194;23;20051;-63
2021/04/10 13:17:29;;;;;;;7.90;2.03;;;20.40;45.60;;;;;;7710945;23;20408;-63
2021/04/10 13:20:29;;;;;;;10.77;2.67;;;20.40;45.60;;;;;;7711826;23;20008;-63
2021/04/10 13:23:30;;;;;;;10.13;2.13;;;20.40;45.60;;;;;;7712617;23;20000;-63
2021/04/10 13:26:30;;;;;;;10.13;2.42;;;20.40;45.50;;;;;;7712592;23;20036;-62
2021/04/10 13:29:31;;;;;;;8.57;1.92;;;20.40;45.20;;;;;;7712986;23;20051;-63
2021/04/10 13:32:32;;;;;;;6.60;1.70;;;20.40;45.50;;;;;;7714852;23;19996;-63
2021/04/10 13:35:32;;;;;;;8.63;2.00;;;20.40;45.50;;;;;;7714003;23;20310;-63
2021/04/10 13:38:33;;;;;;;5.38;2.00;;;20.40;45.50;;;;;;7713540;23;20009;-63
2021/04/10 13:41:33;;;;;;;8.88;2.15;;;20.40;45.50;;;;;;7713906;23;20005;-63
2021/04/10 13:44:34;;;;;;;6.47;2.08;;;20.40;45.50;;;;;;7714537;23;20009;-63
2021/04/10 13:47:34;;;;;;;7.82;2.30;;;20.40;45.50;;;;;;7713521;23;20009;-63
2021/04/10 13:50:34;;;;;;;8.60;2.33;;;20.40;45.50;;;;;;7713166;23;20017;-63
2021/04/10 13:53:35;;;;;;;7.72;1.73;;;20.40;45.60;;;;;;7714461;23;20008;-63
2021/04/10 13:56:36;;;;;;;6.65;1.63;;;20.40;45.60;;;;;;7713457;23;20448;-63
2021/04/10 13:59:36;;;;;;;5.43;1.77;;;20.40;45.50;;;;;;7714259;23;20277;-63
2021/04/10 14:02:37;;;;;;;8.77;2.50;;;20.40;45.60;;;;;;7713077;23;20314;-63
2021/04/10 14:05:37;;;;;;;7.15;1.63;;;20.40;45.60;;;;;;7713723;23;20023;-63
2021/04/10 14:08:39;;;;;;;5.05;1.48;;;20.40;45.50;;;;;;7714285;23;20008;-63
2021/04/10 14:11:39;;;;;;;4.50;1.85;;;20.40;45.60;;;;;;7714109;23;20079;-63
2021/04/10 14:14:40;;;;;;;4.57;1.40;;;20.40;45.50;;;;;;7713477;23;20013;-64
2021/04/10 14:17:41;;;;;;;3.72;1.13;;;20.40;45.50;;;;;;7713411;23;20070;-63
2021/04/10 14:20:44;;;;;;;4.28;1.42;;;20.40;45.60;;;;;;7713569;23;20004;-63
2021/04/10 14:23:51;;;;;;;4.07;1.55;;;20.40;45.60;;;;;;7714283;23;19996;-64
2021/04/10 14:26:52;;;;;;;2.38;1.13;;;20.40;45.60;;;;;;7712186;23;20011;-63
2021/04/10 14:29:52;;;;;;;4.93;1.40;;;20.40;45.60;;;;;;7714650;23;20424;-63
2021/04/10 14:32:53;;;;;;;4.60;1.67;;;20.40;45.60;;;;;;7713360;23;20001;-63
2021/04/10 14:35:54;;;;;;;3.22;1.33;;;20.40;45.60;;;;;;7712382;23;20641;-62
2021/04/10 14:38:55;;;;;;;7.07;1.83;;;20.40;45.60;;;;;;7712772;23;20452;-63
2021/04/10 14:41:56;;;;;;;1.95;1.10;;;20.40;45.60;;;;;;7713188;23;20080;-63
2021/04/10 14:44:56;;;;;;;2.97;1.10;;;20.40;45.60;;;;;;7713927;23;20062;-63
2021/04/10 14:47:57;;;;;;;2.88;1.42;;;20.40;45.60;;;;;;7712464;23;20385;-63
2021/04/10 14:50:58;;;;;;;3.88;1.30;;;20.40;45.60;;;;;;7712384;23;20020;-63
2021/04/10 14:53:58;;;;;;;3.15;1.58;;;20.40;45.60;;;;;;7712936;23;20452;-63
2021/04/10 14:56:59;;;;;;;5.20;1.77;;;20.40;45.70;;;;;;7712334;23;20000;-63
2021/04/10 15:00:02;;;;;;;2.90;1.35;;;20.40;45.70;;;;;;7713081;23;20005;-63
2021/04/10 15:03:03;;;;;;;2.95;1.13;;;20.40;45.70;;;;;;7713063;23;20080;-63
2021/04/10 15:06:06;;;;;;;2.70;1.20;;;20.30;45.60;;;;;;7712045;23;20620;-63
2021/04/10 15:09:06;;;;;;;1.60;0.90;;;20.40;45.50;;;;;;7712413;23;20047;-63
2021/04/10 15:12:08;;;;;;;5.85;1.15;;;20.40;45.60;;;;;;7713119;23;20004;-63
2021/04/10 15:15:11;;;;;;;3.30;1.40;;;20.40;45.60;;;;;;7713502;23;20009;-63
2021/04/10 15:18:11;;;;;;;4.05;1.33;;;20.40;45.60;;;;;;7711530;23;20005;-63
2021/04/10 15:21:13;;;;;;;4.65;1.20;;;20.40;45.60;;;;;;7713195;23;20444;-63
2021/04/10 15:24:13;;;;;;;2.92;1.00;;;20.40;45.60;;;;;;7712930;23;20009;-63
2021/04/10 15:27:14;;;;;;;4.80;1.40;;;20.30;45.50;;;;;;7712071;23;20376;-63
2021/04/10 15:30:15;;;;;;;6.82;1.17;;;20.30;45.40;;;;;;7712146;23;20004;-63
2021/04/10 15:33:17;;;;;;;3.83;1.15;;;20.40;45.60;;;;;;7712761;23;20004;-63
2021/04/10 15:36:24;;;;;;;5.90;1.15;;;20.40;45.60;;;;;;7712493;23;20012;-63
2021/04/10 15:39:24;;;;;;;4.05;1.10;;;20.40;45.70;;;;;;7712805;23;20329;-63
2021/04/10 15:42:25;;;;;;;4.80;1.02;;;20.40;45.70;;;;;;7711432;23;20001;-63
2021/04/10 15:45:26;;;;;;;6.05;1.27;;;20.30;45.60;;;;;;7712791;23;20008;-63
2021/04/10 15:48:26;;;;;;;6.68;1.30;;;20.40;45.60;;;;;;7711896;23;20433;-63
2021/04/10 15:51:27;;;;;;;5.45;1.38;;;20.40;45.70;;;;;;7711469;23;20445;-63